createdAt,value
2018-09-10T00:01:09.270Z,12.60
2018-09-10T00:03:38.162Z,12.60
2018-09-10T00:06:07.070Z,12.40
2018-09-10T00:08:35.988Z,12.30
2018-09-10T00:11:04.889Z,12.30
2018-09-10T00:13:33.770Z,12.30
2018-09-10T00:16:02.634Z,12.30
2018-09-10T00:18:31.510Z,12.30
2018-09-10T00:21:00.379Z,12.20
2018-09-10T00:23:29.246Z,12.10
2018-09-10T00:25:58.177Z,12.10
2018-09-10T00:28:27.062Z,12.10
2018-09-10T00:30:55.917Z,12.10
2018-09-10T00:33:24.803Z,12.20
2018-09-10T00:35:53.677Z,12.20
2018-09-10T00:38:22.550Z,12.10
2018-09-10T00:40:51.429Z,12.00
2018-09-10T00:43:20.315Z,11.90
2018-09-10T00:45:49.174Z,11.90
2018-09-10T00:48:18.102Z,11.90
2018-09-10T00:50:46.970Z,11.90
2018-09-10T00:53:15.861Z,12.00
2018-09-10T00:55:45.679Z,11.90
2018-09-10T00:58:14.592Z,12.00
2018-09-10T01:00:43.501Z,12.00
2018-09-10T01:03:12.378Z,11.90
2018-09-10T01:05:41.296Z,11.80
2018-09-10T01:08:10.175Z,11.80
2018-09-10T01:10:39.058Z,11.70
2018-09-10T01:13:07.929Z,11.80
2018-09-10T01:15:36.803Z,11.80
2018-09-10T01:18:05.691Z,11.80
2018-09-10T01:20:34.558Z,11.90
2018-09-10T01:23:03.449Z,11.80
2018-09-10T01:25:32.310Z,11.70
2018-09-10T01:28:01.202Z,11.70
2018-09-10T01:30:30.059Z,11.70
2018-09-10T01:32:58.965Z,11.60
2018-09-10T01:35:32.363Z,11.60
2018-09-10T01:38:01.274Z,11.50
2018-09-10T01:40:30.127Z,11.50
2018-09-10T01:42:59.006Z,11.50
2018-09-10T01:45:27.873Z,11.50
2018-09-10T01:47:56.755Z,11.50
2018-09-10T01:50:25.627Z,11.50
2018-09-10T01:52:54.507Z,11.40
2018-09-10T01:55:23.358Z,11.40
2018-09-10T01:57:52.266Z,11.40
2018-09-10T02:00:21.150Z,11.40
2018-09-10T02:02:50.014Z,11.30
2018-09-10T02:05:18.895Z,11.20
2018-09-10T02:07:47.805Z,11.20
2018-09-10T02:10:16.802Z,11.10
2018-09-10T02:12:45.738Z,11.00
2018-09-10T02:15:14.618Z,10.90
2018-09-10T02:17:43.564Z,10.90
2018-09-10T02:20:12.515Z,10.80
2018-09-10T02:22:41.347Z,10.80
2018-09-10T02:25:10.210Z,10.70
2018-09-10T02:27:39.113Z,10.80
2018-09-10T02:30:08.108Z,10.80
2018-09-10T02:32:37.038Z,10.80
2018-09-10T02:35:05.970Z,10.80
2018-09-10T02:37:34.879Z,10.70
2018-09-10T02:40:04.151Z,10.70
2018-09-10T02:42:33.228Z,10.70
2018-09-10T02:45:02.159Z,10.60
2018-09-10T02:47:31.045Z,10.50
2018-09-10T02:49:59.903Z,10.50
2018-09-10T02:52:28.779Z,10.40
2018-09-10T02:54:57.672Z,10.50
2018-09-10T02:57:26.597Z,10.40
2018-09-10T02:59:55.466Z,10.40
2018-09-10T03:02:24.358Z,10.40
2018-09-10T03:04:53.213Z,10.40
2018-09-10T03:07:22.082Z,10.40
2018-09-10T03:09:50.941Z,10.40
2018-09-10T03:12:19.832Z,10.40
2018-09-10T03:14:48.686Z,10.50
2018-09-10T03:17:17.568Z,10.50
2018-09-10T03:19:46.490Z,10.50
2018-09-10T03:22:15.503Z,10.50
2018-09-10T03:24:44.374Z,10.50
2018-09-10T03:27:13.274Z,10.50
2018-09-10T03:29:42.154Z,10.40
2018-09-10T03:32:11.070Z,10.40
2018-09-10T03:34:39.945Z,10.50
2018-09-10T03:37:08.841Z,10.50
2018-09-10T03:39:37.783Z,10.40
2018-09-10T03:42:06.658Z,10.30
2018-09-10T03:44:35.750Z,10.20
2018-09-10T03:47:04.622Z,10.20
2018-09-10T03:49:33.503Z,10.10
2018-09-10T03:52:02.368Z,10.10
2018-09-10T03:54:31.235Z,10.10
2018-09-10T03:57:00.100Z,10.10
2018-09-10T03:59:28.962Z,10.10
2018-09-10T04:01:57.833Z,10.00
2018-09-10T04:04:26.718Z,10.00
2018-09-10T04:06:55.573Z,9.90
2018-09-10T04:09:24.434Z,9.70
2018-09-10T04:11:53.294Z,9.70
2018-09-10T04:14:22.158Z,9.70
2018-09-10T04:16:51.022Z,9.90
2018-09-10T04:19:19.931Z,9.90
2018-09-10T04:21:48.786Z,9.80
2018-09-10T04:24:17.671Z,9.80
2018-09-10T04:26:49.558Z,9.80
2018-09-10T04:29:18.431Z,9.80
2018-09-10T04:31:47.349Z,9.70
2018-09-10T04:34:16.230Z,9.70
2018-09-10T04:36:45.127Z,9.80
2018-09-10T04:39:14.101Z,9.80
2018-09-10T04:41:43.612Z,9.80
2018-09-10T04:44:12.499Z,9.80
2018-09-10T04:46:41.407Z,9.70
2018-09-10T04:49:10.294Z,9.70
2018-09-10T04:51:39.154Z,9.70
2018-09-10T04:54:08.034Z,9.60
2018-09-10T04:56:36.886Z,9.60
2018-09-10T04:59:05.778Z,9.60
2018-09-10T05:01:34.679Z,9.50
2018-09-10T05:04:03.575Z,9.60
2018-09-10T05:06:32.427Z,9.60
2018-09-10T05:09:01.301Z,9.60
2018-09-10T05:11:30.150Z,9.60
2018-09-10T05:13:59.085Z,9.60
2018-09-10T05:16:27.951Z,9.70
2018-09-10T05:18:56.822Z,9.70
2018-09-10T05:21:25.678Z,9.90
2018-09-10T05:23:54.565Z,9.80
2018-09-10T05:26:23.418Z,9.90
2018-09-10T05:28:52.294Z,10.00
2018-09-10T05:31:21.210Z,10.10
2018-09-10T05:33:50.075Z,10.10
2018-09-10T05:36:18.974Z,10.10
2018-09-10T05:38:47.954Z,10.10
2018-09-10T05:41:16.828Z,10.10
2018-09-10T05:43:45.907Z,10.20
2018-09-10T05:46:14.790Z,10.30
2018-09-10T05:48:43.702Z,10.50
2018-09-10T05:51:12.600Z,10.70
2018-09-10T05:53:41.501Z,10.70
2018-09-10T05:56:10.396Z,10.80
2018-09-10T05:58:39.270Z,10.90
2018-09-10T06:01:08.179Z,11.00
2018-09-10T06:03:37.055Z,11.20
2018-09-10T06:06:05.963Z,11.40
2018-09-10T06:08:34.877Z,11.40
2018-09-10T06:11:03.703Z,11.50
2018-09-10T06:13:32.654Z,11.70
2018-09-10T06:16:01.521Z,11.90
2018-09-10T06:18:30.402Z,12.00
2018-09-10T06:20:59.279Z,12.20
2018-09-10T06:23:28.202Z,12.20
2018-09-10T06:25:57.068Z,12.40
2018-09-10T06:28:25.959Z,12.50
2018-09-10T06:30:54.826Z,12.70
2018-09-10T06:33:23.774Z,12.80
2018-09-10T06:35:52.657Z,12.90
2018-09-10T06:38:21.527Z,13.10
2018-09-10T06:40:50.385Z,13.20
2018-09-10T06:43:19.262Z,13.40
2018-09-10T06:45:48.144Z,13.60
2018-09-10T06:48:17.026Z,13.60
2018-09-10T06:50:45.918Z,13.80
2018-09-10T06:53:14.838Z,13.90
2018-09-10T06:55:43.758Z,14.00
2018-09-10T06:58:12.655Z,14.20
2018-09-10T07:00:41.826Z,14.30
2018-09-10T07:03:10.702Z,14.50
2018-09-10T07:05:39.579Z,14.60
2018-09-10T07:08:08.479Z,14.70
2018-09-10T07:10:37.411Z,14.80
2018-09-10T07:13:06.421Z,14.80
2018-09-10T07:15:35.310Z,14.90
2018-09-10T07:18:04.190Z,15.00
2018-09-10T07:20:33.080Z,15.20
2018-09-10T07:23:01.942Z,15.20
2018-09-10T07:25:30.851Z,15.40
2018-09-10T07:27:59.710Z,15.50
2018-09-10T07:30:28.606Z,15.70
2018-09-10T07:32:57.579Z,15.80
2018-09-10T07:35:26.478Z,16.00
2018-09-10T07:37:55.366Z,16.10
2018-09-10T07:40:24.285Z,16.30
2018-09-10T07:42:53.201Z,16.30
2018-09-10T07:45:22.160Z,16.40
2018-09-10T07:47:51.194Z,16.50
2018-09-10T07:50:20.144Z,16.50
2018-09-10T07:52:48.962Z,16.60
2018-09-10T07:55:17.858Z,16.80
2018-09-10T07:57:46.734Z,16.90
2018-09-10T08:00:15.630Z,17.00
2018-09-10T08:02:44.507Z,17.10
2018-09-10T08:05:13.434Z,17.20
2018-09-10T08:07:42.334Z,17.40
2018-09-10T08:10:11.246Z,17.50
2018-09-10T08:12:40.170Z,17.70
2018-09-10T08:15:09.110Z,17.80
2018-09-10T08:17:38.042Z,18.00
2018-09-10T08:20:06.995Z,18.10
2018-09-10T08:22:35.865Z,18.20
2018-09-10T08:25:04.838Z,18.40
2018-09-10T08:27:33.853Z,18.50
2018-09-10T08:30:02.874Z,18.70
2018-09-10T08:32:31.814Z,18.90
2018-09-10T08:35:00.735Z,19.10
2018-09-10T08:37:29.610Z,19.40
2018-09-10T08:39:58.490Z,19.60
2018-09-10T08:42:27.362Z,19.70
2018-09-10T08:44:56.355Z,19.80
2018-09-10T08:47:25.239Z,19.80
2018-09-10T08:49:54.166Z,20.00
2018-09-10T08:52:23.042Z,20.20
2018-09-10T08:54:52.220Z,20.50
2018-09-10T08:57:20.783Z,20.70
2018-09-10T08:59:49.686Z,20.80
2018-09-10T09:02:18.594Z,21.00
2018-09-10T09:04:47.478Z,21.20
2018-09-10T09:07:16.380Z,21.40
2018-09-10T09:09:45.267Z,21.60
2018-09-10T09:12:14.158Z,21.80
2018-09-10T09:14:43.190Z,21.80
2018-09-10T09:17:12.063Z,22.00
2018-09-10T09:19:40.954Z,22.00
2018-09-10T09:22:09.818Z,22.10
2018-09-10T09:24:38.710Z,22.30
2018-09-10T09:27:07.606Z,22.30
2018-09-10T09:29:36.490Z,22.50
2018-09-10T09:32:05.386Z,22.60
2018-09-10T09:34:39.450Z,22.80
2018-09-10T09:37:13.734Z,23.00
2018-09-10T09:39:48.491Z,23.10
2018-09-10T09:42:22.742Z,23.20
2018-09-10T09:44:56.896Z,23.50
2018-09-10T09:47:25.774Z,23.70
2018-09-10T09:49:54.633Z,23.70
2018-09-10T09:52:23.505Z,23.70
2018-09-10T09:54:52.382Z,23.80
2018-09-10T09:57:21.276Z,24.00
2018-09-10T09:59:50.174Z,24.10
2018-09-10T10:02:20.010Z,24.30
2018-09-10T10:04:48.914Z,24.50
2018-09-10T10:07:17.991Z,24.40
2018-09-10T10:09:46.869Z,24.50
2018-09-10T10:14:52.055Z,24.60
2018-09-10T10:17:21.490Z,25.00
2018-09-10T10:19:51.411Z,25.00
2018-09-10T10:22:20.298Z,25.30
2018-09-10T10:24:49.264Z,25.60
2018-09-10T10:27:18.142Z,25.70
2018-09-10T10:29:47.014Z,25.80
2018-09-10T10:32:15.922Z,25.50
2018-09-10T10:34:44.786Z,25.30
2018-09-10T10:37:13.669Z,25.40
2018-09-10T10:39:42.551Z,25.60
2018-09-10T10:42:11.498Z,25.80
2018-09-10T10:44:40.371Z,25.70
2018-09-10T10:47:09.250Z,25.80
2018-09-10T10:49:38.114Z,25.70
2018-09-10T10:52:07.011Z,25.70
2018-09-10T10:54:35.878Z,26.00
2018-09-10T10:57:04.782Z,26.40
2018-09-10T10:59:33.655Z,26.50
2018-09-10T11:02:02.518Z,26.60
2018-09-10T11:04:31.406Z,26.80
2018-09-10T11:07:00.267Z,26.90
2018-09-10T11:09:29.159Z,26.70
2018-09-10T11:11:58.014Z,26.40
2018-09-10T11:14:26.890Z,26.40
2018-09-10T11:16:55.755Z,26.50
2018-09-10T11:19:24.633Z,26.50
2018-09-10T11:21:53.513Z,26.60
2018-09-10T11:24:22.397Z,26.80
2018-09-10T11:26:51.293Z,27.10
2018-09-10T11:29:20.174Z,27.40
2018-09-10T11:31:49.049Z,27.70
2018-09-10T11:34:17.923Z,27.90
2018-09-10T11:36:46.814Z,27.70
2018-09-10T11:39:15.710Z,27.70
2018-09-10T11:41:44.573Z,27.40
2018-09-10T11:44:13.445Z,27.50
2018-09-10T11:46:42.368Z,27.80
2018-09-10T11:49:11.194Z,28.00
2018-09-10T11:51:40.043Z,28.20
2018-09-10T11:54:08.922Z,28.40
2018-09-10T11:56:37.790Z,28.30
2018-09-10T11:59:06.798Z,28.00
2018-09-10T12:01:35.675Z,28.10
2018-09-10T12:04:04.573Z,28.10
2018-09-10T12:06:33.537Z,28.40
2018-09-10T12:09:02.574Z,28.80
2018-09-10T12:11:31.426Z,28.50
2018-09-10T12:14:00.318Z,28.50
2018-09-10T12:16:29.173Z,28.70
2018-09-10T12:18:58.050Z,29.20
2018-09-10T12:21:26.937Z,29.20
2018-09-10T12:23:55.813Z,29.40
2018-09-10T12:26:24.682Z,29.70
2018-09-10T12:28:53.559Z,30.00
2018-09-10T12:31:22.430Z,30.10
2018-09-10T12:33:51.303Z,30.30
2018-09-10T12:36:20.165Z,30.10
2018-09-10T12:38:49.055Z,30.30
2018-09-10T12:41:17.922Z,30.60
2018-09-10T12:43:46.829Z,30.70
2018-09-10T12:46:15.725Z,30.70
2018-09-10T12:48:44.618Z,30.20
2018-09-10T12:51:13.492Z,30.10
2018-09-10T12:53:42.398Z,29.70
2018-09-10T12:56:11.294Z,29.50
2018-09-10T12:58:40.254Z,29.40
2018-09-10T13:01:09.083Z,29.60
2018-09-10T13:03:37.958Z,29.70
2018-09-10T13:06:06.864Z,30.10
2018-09-10T13:08:35.746Z,30.60
2018-09-10T13:11:04.635Z,30.90
2018-09-10T13:13:33.510Z,30.90
2018-09-10T13:16:02.363Z,31.30
2018-09-10T13:18:31.251Z,31.40
2018-09-10T13:21:00.126Z,30.90
2018-09-10T13:23:29.042Z,30.90
2018-09-10T13:25:57.894Z,30.90
2018-09-10T13:28:26.830Z,30.90
2018-09-10T13:30:55.686Z,30.70
2018-09-10T13:33:24.566Z,30.80
2018-09-10T13:35:53.450Z,30.90
2018-09-10T13:38:22.324Z,31.10
2018-09-10T13:40:51.177Z,30.80
2018-09-10T13:43:20.079Z,30.90
2018-09-10T13:45:48.999Z,30.60
2018-09-10T13:48:17.911Z,30.60
2018-09-10T13:50:46.790Z,30.80
2018-09-10T13:53:15.680Z,30.50
2018-09-10T13:55:44.571Z,30.20
2018-09-10T13:58:13.450Z,30.50
2018-09-10T14:00:42.334Z,30.30
2018-09-10T14:03:11.234Z,29.90
2018-09-10T14:05:40.094Z,29.70
2018-09-10T14:08:09.023Z,29.90
2018-09-10T14:10:37.959Z,30.50
2018-09-10T14:13:06.777Z,30.50
2018-09-10T14:15:35.635Z,30.30
2018-09-10T14:18:04.533Z,30.00
2018-09-10T14:20:33.378Z,30.00
2018-09-10T14:23:02.253Z,30.10
2018-09-10T14:25:31.127Z,30.00
2018-09-10T14:28:00.011Z,29.80
2018-09-10T14:30:28.870Z,29.30
2018-09-10T14:32:57.778Z,29.10
2018-09-10T14:35:26.634Z,29.20
2018-09-10T14:37:55.554Z,29.20
2018-09-10T14:40:24.415Z,29.60
2018-09-10T14:42:53.280Z,29.80
2018-09-10T14:45:22.223Z,30.10
2018-09-10T14:47:51.090Z,30.30
2018-09-10T14:50:20.024Z,30.30
2018-09-10T14:52:48.831Z,30.40
2018-09-10T14:55:17.715Z,30.60
2018-09-10T14:57:46.578Z,30.70
2018-09-10T15:00:20.694Z,30.30
2018-09-10T15:02:49.575Z,29.80
2018-09-10T15:05:18.538Z,29.90
2018-09-10T15:07:47.434Z,30.20
2018-09-10T15:10:16.438Z,30.50
2018-09-10T15:12:45.318Z,30.70
2018-09-10T15:15:14.767Z,30.50
2018-09-10T15:17:43.645Z,30.30
2018-09-10T15:20:12.706Z,29.90
2018-09-10T15:22:41.991Z,29.50
2018-09-10T15:25:10.881Z,29.40
2018-09-10T15:27:39.762Z,29.10
2018-09-10T15:30:09.003Z,28.80
2018-09-10T15:32:37.868Z,28.50
2018-09-10T15:35:06.803Z,28.30
2018-09-10T15:37:35.661Z,28.10
2018-09-10T15:40:04.619Z,27.80
2018-09-10T15:42:33.481Z,27.60
2018-09-10T15:45:02.370Z,27.50
2018-09-10T15:47:31.245Z,27.50
2018-09-10T15:50:00.139Z,27.40
2018-09-10T15:52:29.021Z,27.40
2018-09-10T15:54:57.910Z,27.30
2018-09-10T15:57:26.774Z,27.20
2018-09-10T15:59:55.720Z,27.10
2018-09-10T16:02:24.572Z,27.10
2018-09-10T16:04:53.763Z,27.00
2018-09-10T16:07:22.729Z,27.00
2018-09-10T16:09:51.556Z,26.90
2018-09-10T16:12:20.450Z,26.80
2018-09-10T16:14:49.365Z,26.90
2018-09-10T16:17:18.341Z,26.80
2018-09-10T16:19:47.378Z,26.80
2018-09-10T16:22:17.176Z,26.80
2018-09-10T16:24:46.074Z,26.70
2018-09-10T16:27:14.975Z,26.70
2018-09-10T16:29:43.934Z,26.60
2018-09-10T16:32:12.806Z,26.50
2018-09-10T16:34:41.698Z,26.40
2018-09-10T16:37:10.884Z,26.30
2018-09-10T16:39:39.835Z,26.30
2018-09-10T16:42:08.759Z,26.30
2018-09-10T16:44:37.770Z,26.20
2018-09-10T16:47:06.689Z,26.20
2018-09-10T16:49:35.683Z,26.10
2018-09-10T16:52:04.771Z,26.00
2018-09-10T16:54:34.047Z,26.00
2018-09-10T16:57:03.024Z,26.00
2018-09-10T16:59:32.049Z,25.90
2018-09-10T17:02:01.090Z,25.90
2018-09-10T17:04:29.990Z,25.80
2018-09-10T17:06:59.275Z,25.70
2018-09-10T17:09:28.223Z,25.70
2018-09-10T17:11:57.550Z,25.60
2018-09-10T17:14:26.527Z,25.50
2018-09-10T17:16:55.491Z,25.50
2018-09-10T17:19:24.447Z,25.40
2018-09-10T17:21:53.445Z,25.40
2018-09-10T17:24:22.346Z,25.30
2018-09-10T17:26:51.283Z,25.30
2018-09-10T17:29:20.187Z,25.20
2018-09-10T17:31:49.126Z,25.20
2018-09-10T17:34:18.059Z,25.00
2018-09-10T17:36:47.007Z,24.90
2018-09-10T17:39:15.898Z,24.80
2018-09-10T17:41:44.787Z,24.70
2018-09-10T17:44:13.762Z,24.60
2018-09-10T17:46:42.736Z,24.50
2018-09-10T17:49:11.718Z,24.40
2018-09-10T17:51:40.682Z,24.30
2018-09-10T17:54:09.499Z,24.10
2018-09-10T17:56:39.398Z,24.00
2018-09-10T17:59:08.334Z,23.90
2018-09-10T18:01:37.198Z,23.90
2018-09-10T18:04:06.127Z,23.70
2018-09-10T18:06:35.017Z,23.70
2018-09-10T18:09:04.879Z,23.60
2018-09-10T18:11:33.774Z,23.50
2018-09-10T18:14:02.673Z,23.40
2018-09-10T18:16:31.710Z,23.30
2018-09-10T18:19:00.643Z,23.10
2018-09-10T18:21:29.502Z,23.00
2018-09-10T18:23:58.406Z,22.90
2018-09-10T18:26:27.295Z,22.80
2018-09-10T18:28:56.219Z,22.70
2018-09-10T18:31:25.110Z,22.60
2018-09-10T18:33:53.998Z,22.50
2018-09-10T18:36:22.911Z,22.40
2018-09-10T18:38:52.163Z,22.30
2018-09-10T18:41:21.255Z,22.30
2018-09-10T18:43:50.197Z,22.20
2018-09-10T18:46:19.145Z,22.00
2018-09-10T18:48:48.184Z,21.90
2018-09-10T18:51:17.143Z,21.80
2018-09-10T18:53:46.039Z,21.80
2018-09-10T18:56:15.095Z,21.60
2018-09-10T18:58:44.110Z,21.20
2018-09-10T19:01:13.197Z,21.20
2018-09-10T19:03:42.070Z,21.20
2018-09-10T19:06:11.103Z,21.10
2018-09-10T19:08:40.109Z,20.90
2018-09-10T19:11:09.015Z,20.90
2018-09-10T19:13:37.990Z,20.70
2018-09-10T19:16:06.959Z,20.60
2018-09-10T19:18:37.701Z,20.50
2018-09-10T19:21:13.318Z,20.40
2018-09-10T19:23:42.915Z,20.20
2018-09-10T19:26:11.829Z,20.30
2018-09-10T19:28:40.707Z,20.20
2018-09-10T19:31:11.377Z,20.20
2018-09-10T19:33:40.620Z,20.10
2018-09-10T19:36:09.528Z,20.00
2018-09-10T19:38:38.477Z,20.00
2018-09-10T19:41:07.430Z,20.00
2018-09-10T19:43:36.323Z,19.70
2018-09-10T19:46:05.255Z,19.60
2018-09-10T19:48:34.129Z,19.40
2018-09-10T19:51:03.022Z,19.40
2018-09-10T19:53:31.890Z,19.40
2018-09-10T19:56:00.845Z,19.50
2018-09-10T19:58:29.735Z,19.50
2018-09-10T20:00:58.633Z,19.40
2018-09-10T20:03:27.522Z,19.30
2018-09-10T20:05:56.439Z,19.10
2018-09-10T20:08:25.335Z,18.90
2018-09-10T20:10:54.487Z,18.90
2018-09-10T20:13:23.357Z,18.90
2018-09-10T20:15:52.258Z,19.00
2018-09-10T20:18:21.139Z,18.90
2018-09-10T20:20:50.034Z,18.80
2018-09-10T20:23:18.946Z,18.80
2018-09-10T20:25:48.094Z,18.80
2018-09-10T20:28:17.006Z,18.70
2018-09-10T20:30:45.976Z,18.80
2018-09-10T20:33:14.875Z,18.70
2018-09-10T20:35:43.842Z,18.80
2018-09-10T20:38:12.802Z,18.80
2018-09-10T20:40:41.979Z,18.70
2018-09-10T20:43:11.062Z,18.60
2018-09-10T20:45:40.092Z,18.50
2018-09-10T20:48:08.942Z,18.30
2018-09-10T20:50:37.859Z,18.30
2018-09-10T20:53:06.803Z,18.30
2018-09-10T20:55:35.694Z,18.40
2018-09-10T20:58:04.667Z,18.30
2018-09-10T21:00:33.558Z,18.40
2018-09-10T21:03:02.441Z,18.30
2018-09-10T21:05:32.314Z,18.00
2018-09-10T21:08:01.244Z,17.90
2018-09-10T21:10:30.134Z,17.80
2018-09-10T21:12:59.034Z,17.70
2018-09-10T21:15:27.948Z,17.70
2018-09-10T21:17:56.830Z,17.70
2018-09-10T21:20:25.722Z,17.80
2018-09-10T21:22:54.597Z,17.80
2018-09-10T21:25:23.521Z,17.80
2018-09-10T21:27:52.406Z,17.80
2018-09-10T21:30:21.303Z,17.70
2018-09-10T21:32:50.215Z,17.80
2018-09-10T21:35:19.390Z,17.70
2018-09-10T21:37:48.278Z,17.70
2018-09-10T21:40:17.262Z,17.60
2018-09-10T21:42:46.162Z,17.70
2018-09-10T21:45:15.102Z,17.40
2018-09-10T21:47:44.075Z,17.20
2018-09-10T21:50:13.012Z,17.20
2018-09-10T21:52:41.938Z,17.10
2018-09-10T21:55:10.895Z,17.10
2018-09-10T21:57:39.784Z,17.10
2018-09-10T22:00:08.818Z,17.10
2018-09-10T22:02:37.687Z,17.10
2018-09-10T22:05:06.707Z,16.90
2018-09-10T22:07:35.579Z,17.00
2018-09-10T22:10:04.776Z,17.00
2018-09-10T22:12:33.682Z,17.10
2018-09-10T22:15:02.627Z,17.10
2018-09-10T22:17:31.518Z,17.00
2018-09-10T22:20:00.418Z,16.90
2018-09-10T22:22:29.295Z,16.70
2018-09-10T22:24:58.265Z,16.60
2018-09-10T22:27:27.178Z,16.50
2018-09-10T22:29:56.064Z,16.40
2018-09-10T22:32:24.952Z,16.50
2018-09-10T22:34:53.842Z,16.60
2018-09-10T22:37:22.732Z,16.70
2018-09-10T22:39:51.626Z,16.70
2018-09-10T22:42:20.493Z,16.60
2018-09-10T22:44:49.394Z,16.60
2018-09-10T22:47:18.363Z,16.70
2018-09-10T22:49:47.253Z,16.80
2018-09-10T22:52:16.134Z,16.70
2018-09-10T22:54:45.023Z,16.70
2018-09-10T22:57:14.011Z,16.70
2018-09-10T22:59:42.925Z,16.70
2018-09-10T23:02:11.805Z,16.70
2018-09-10T23:04:47.492Z,16.50
2018-09-10T23:07:16.475Z,16.30
2018-09-10T23:09:45.373Z,16.20
2018-09-10T23:12:14.242Z,16.10
2018-09-10T23:14:43.186Z,15.90
2018-09-10T23:17:12.062Z,15.80
2018-09-10T23:19:40.948Z,15.90
2018-09-10T23:22:09.825Z,15.80
2018-09-10T23:24:38.707Z,16.00
2018-09-10T23:27:07.598Z,16.00
2018-09-10T23:29:36.514Z,16.00
2018-09-10T23:32:05.574Z,16.10
2018-09-10T23:34:34.666Z,16.20
2018-09-10T23:37:03.777Z,16.30
2018-09-10T23:39:32.642Z,16.20
2018-09-10T23:42:01.526Z,16.10
2018-09-10T23:44:30.399Z,16.10
2018-09-10T23:46:59.302Z,16.00
2018-09-10T23:49:28.174Z,15.90
2018-09-10T23:51:57.095Z,15.80
2018-09-10T23:54:25.957Z,15.70
2018-09-10T23:56:54.866Z,15.70
2018-09-10T23:59:23.743Z,15.70
